sensor_id;sensor_type;location;lat;lon;timestamp;pressure;altitude;pressure_sealevel;temperature;humidity
56176;BME280;63065;51.082;17.016;2023-04-29T00:00:56;99917.55;;;17.20;34.11
56176;BME280;63065;51.082;17.016;2023-04-29T00:03:21;99908.81;;;17.71;33.92
56176;BME280;63065;51.082;17.016;2023-04-29T00:05:47;99906.42;;;17.49;33.89
56176;BME280;63065;51.082;17.016;2023-04-29T00:08:13;99902.75;;;17.43;34.11
56176;BME280;63065;51.082;17.016;2023-04-29T00:10:39;99902.96;;;16.92;34.07
56176;BME280;63065;51.082;17.016;2023-04-29T00:13:05;99902.57;;;17.08;33.79
56176;BME280;63065;51.082;17.016;2023-04-29T00:15:30;99902.03;;;17.04;33.84
56176;BME280;63065;51.082;17.016;2023-04-29T00:17:55;99898.90;;;17.00;33.87
56176;BME280;63065;51.082;17.016;2023-04-29T00:20:21;99899.34;;;17.49;33.75
56176;BME280;63065;51.082;17.016;2023-04-29T00:22:47;99900.51;;;17.27;33.75
56176;BME280;63065;51.082;17.016;2023-04-29T00:25:12;99897.77;;;17.32;33.70
56176;BME280;63065;51.082;17.016;2023-04-29T00:27:38;99899.11;;;17.27;33.68
56176;BME280;63065;51.082;17.016;2023-04-29T00:30:04;99895.57;;;17.07;34.13
56176;BME280;63065;51.082;17.016;2023-04-29T00:32:29;99896.96;;;17.36;33.60
56176;BME280;63065;51.082;17.016;2023-04-29T00:34:54;99894.35;;;17.15;34.03
56176;BME280;63065;51.082;17.016;2023-04-29T00:37:19;99891.67;;;17.16;34.09
56176;BME280;63065;51.082;17.016;2023-04-29T00:39:45;99890.34;;;17.36;34.18
56176;BME280;63065;51.082;17.016;2023-04-29T00:42:11;99889.97;;;17.32;34.26
56176;BME280;63065;51.082;17.016;2023-04-29T00:44:36;99886.47;;;17.51;34.31
56176;BME280;63065;51.082;17.016;2023-04-29T00:47:01;99889.56;;;16.99;34.90
56176;BME280;63065;51.082;17.016;2023-04-29T00:49:27;99887.60;;;17.42;34.53
56176;BME280;63065;51.082;17.016;2023-04-29T00:51:55;99886.27;;;17.16;34.41
56176;BME280;63065;51.082;17.016;2023-04-29T00:54:19;99886.77;;;17.06;34.55
56176;BME280;63065;51.082;17.016;2023-04-29T00:56:45;99883.95;;;17.27;34.34
56176;BME280;63065;51.082;17.016;2023-04-29T00:59:10;99883.70;;;17.00;34.75
56176;BME280;63065;51.082;17.016;2023-04-29T01:01:36;99881.43;;;17.28;34.57
56176;BME280;63065;51.082;17.016;2023-04-29T01:04:01;99881.14;;;17.06;34.63
56176;BME280;63065;51.082;17.016;2023-04-29T01:06:33;99879.44;;;17.00;34.50
56176;BME280;63065;51.082;17.016;2023-04-29T01:09:02;99879.53;;;17.15;34.64
56176;BME280;63065;51.082;17.016;2023-04-29T01:11:21;99878.30;;;16.63;34.83
56176;BME280;63065;51.082;17.016;2023-04-29T01:13:48;99876.19;;;17.18;34.90
56176;BME280;63065;51.082;17.016;2023-04-29T01:16:12;99878.17;;;17.16;34.86
56176;BME280;63065;51.082;17.016;2023-04-29T01:18:36;99875.67;;;17.22;34.96
56176;BME280;63065;51.082;17.016;2023-04-29T01:20:59;99874.57;;;17.00;34.88
56176;BME280;63065;51.082;17.016;2023-04-29T01:23:25;99871.24;;;16.94;35.00
56176;BME280;63065;51.082;17.016;2023-04-29T01:25:50;99869.95;;;17.14;35.34
56176;BME280;63065;51.082;17.016;2023-04-29T01:28:25;99867.80;;;17.11;35.12
56176;BME280;63065;51.082;17.016;2023-04-29T01:30:46;99869.28;;;17.08;35.32
56176;BME280;63065;51.082;17.016;2023-04-29T01:33:14;99870.35;;;17.09;35.17
56176;BME280;63065;51.082;17.016;2023-04-29T01:35:49;99873.68;;;16.78;35.45
56176;BME280;63065;51.082;17.016;2023-04-29T01:38:04;99872.94;;;16.93;35.46
56176;BME280;63065;51.082;17.016;2023-04-29T01:40:25;99875.60;;;16.92;35.51
56176;BME280;63065;51.082;17.016;2023-04-29T01:42:54;99878.95;;;16.68;35.49
56176;BME280;63065;51.082;17.016;2023-04-29T01:45:15;99878.47;;;16.87;35.50
56176;BME280;63065;51.082;17.016;2023-04-29T01:47:40;99879.16;;;16.85;35.56
56176;BME280;63065;51.082;17.016;2023-04-29T01:50:05;99879.31;;;16.79;35.80
56176;BME280;63065;51.082;17.016;2023-04-29T01:52:30;99880.53;;;16.70;35.82
56176;BME280;63065;51.082;17.016;2023-04-29T01:54:55;99881.91;;;16.67;35.97
56176;BME280;63065;51.082;17.016;2023-04-29T01:57:21;99881.90;;;16.68;35.92
56176;BME280;63065;51.082;17.016;2023-04-29T01:59:46;99880.19;;;16.71;35.70
56176;BME280;63065;51.082;17.016;2023-04-29T02:02:11;99879.71;;;16.66;35.81
56176;BME280;63065;51.082;17.016;2023-04-29T02:04:36;99875.46;;;16.69;35.99
56176;BME280;63065;51.082;17.016;2023-04-29T02:07:01;99877.85;;;16.58;36.20
56176;BME280;63065;51.082;17.016;2023-04-29T02:09:27;99878.66;;;16.57;36.05
56176;BME280;63065;51.082;17.016;2023-04-29T02:11:53;99874.91;;;16.55;36.03
56176;BME280;63065;51.082;17.016;2023-04-29T02:14:18;99871.84;;;16.50;35.86
56176;BME280;63065;51.082;17.016;2023-04-29T02:16:43;99870.75;;;16.51;36.18
56176;BME280;63065;51.082;17.016;2023-04-29T02:19:09;99870.90;;;16.65;36.12
56176;BME280;63065;51.082;17.016;2023-04-29T02:21:34;99870.10;;;16.36;36.10
56176;BME280;63065;51.082;17.016;2023-04-29T02:23:59;99869.37;;;16.29;36.17
56176;BME280;63065;51.082;17.016;2023-04-29T02:26:25;99866.63;;;16.19;36.25
56176;BME280;63065;51.082;17.016;2023-04-29T02:28:50;99864.41;;;16.17;36.23
56176;BME280;63065;51.082;17.016;2023-04-29T02:31:15;99865.81;;;16.22;36.19
56176;BME280;63065;51.082;17.016;2023-04-29T02:33:40;99866.17;;;16.28;36.20
56176;BME280;63065;51.082;17.016;2023-04-29T02:36:06;99863.19;;;16.30;35.96
56176;BME280;63065;51.082;17.016;2023-04-29T02:38:31;99862.72;;;16.53;36.17
56176;BME280;63065;51.082;17.016;2023-04-29T02:40:57;99863.39;;;16.38;36.14
56176;BME280;63065;51.082;17.016;2023-04-29T02:43:23;99860.40;;;16.40;35.79
56176;BME280;63065;51.082;17.016;2023-04-29T02:45:48;99860.81;;;16.58;36.34
56176;BME280;63065;51.082;17.016;2023-04-29T02:48:14;99860.87;;;16.37;36.20
56176;BME280;63065;51.082;17.016;2023-04-29T02:50:40;99861.25;;;16.39;35.97
56176;BME280;63065;51.082;17.016;2023-04-29T02:53:06;99860.75;;;16.39;35.91
56176;BME280;63065;51.082;17.016;2023-04-29T02:55:31;99859.28;;;16.59;36.14
56176;BME280;63065;51.082;17.016;2023-04-29T02:57:56;99854.92;;;16.51;36.18
56176;BME280;63065;51.082;17.016;2023-04-29T03:00:22;99853.45;;;16.28;36.10
56176;BME280;63065;51.082;17.016;2023-04-29T03:02:47;99846.24;;;16.49;36.13
56176;BME280;63065;51.082;17.016;2023-04-29T03:05:13;99843.53;;;16.18;36.30
56176;BME280;63065;51.082;17.016;2023-04-29T03:07:39;99842.93;;;16.17;36.25
56176;BME280;63065;51.082;17.016;2023-04-29T03:10:05;99842.26;;;16.16;36.15
56176;BME280;63065;51.082;17.016;2023-04-29T03:12:29;99838.94;;;16.10;36.20
56176;BME280;63065;51.082;17.016;2023-04-29T03:14:54;99838.41;;;16.07;36.22
56176;BME280;63065;51.082;17.016;2023-04-29T03:17:20;99836.07;;;16.30;36.44
56176;BME280;63065;51.082;17.016;2023-04-29T03:19:46;99834.26;;;16.00;36.40
56176;BME280;63065;51.082;17.016;2023-04-29T03:22:11;99833.97;;;15.93;36.37
56176;BME280;63065;51.082;17.016;2023-04-29T03:24:37;99829.04;;;16.08;36.38
56176;BME280;63065;51.082;17.016;2023-04-29T03:27:02;99831.93;;;16.01;36.62
56176;BME280;63065;51.082;17.016;2023-04-29T03:29:26;99834.11;;;16.14;36.75
56176;BME280;63065;51.082;17.016;2023-04-29T03:31:53;99830.30;;;15.55;36.96
56176;BME280;63065;51.082;17.016;2023-04-29T03:34:18;99826.66;;;15.96;36.72
56176;BME280;63065;51.082;17.016;2023-04-29T03:36:43;99825.18;;;15.93;37.35
56176;BME280;63065;51.082;17.016;2023-04-29T03:39:09;99823.85;;;15.72;37.08
56176;BME280;63065;51.082;17.016;2023-04-29T03:41:34;99821.22;;;15.79;37.20
56176;BME280;63065;51.082;17.016;2023-04-29T03:44:00;99822.23;;;15.65;37.34
56176;BME280;63065;51.082;17.016;2023-04-29T03:46:25;99821.89;;;15.65;37.65
56176;BME280;63065;51.082;17.016;2023-04-29T03:48:50;99818.45;;;15.87;37.39
56176;BME280;63065;51.082;17.016;2023-04-29T03:51:15;99821.40;;;15.70;37.73
56176;BME280;63065;51.082;17.016;2023-04-29T03:53:41;99821.18;;;15.30;37.88
56176;BME280;63065;51.082;17.016;2023-04-29T03:56:07;99819.95;;;15.56;37.87
56176;BME280;63065;51.082;17.016;2023-04-29T03:58:32;99816.96;;;15.61;37.91
56176;BME280;63065;51.082;17.016;2023-04-29T04:00:58;99812.03;;;15.29;37.71
56176;BME280;63065;51.082;17.016;2023-04-29T04:03:23;99816.65;;;15.85;37.40
56176;BME280;63065;51.082;17.016;2023-04-29T04:05:49;99827.87;;;15.94;37.41
56176;BME280;63065;51.082;17.016;2023-04-29T04:08:14;99834.37;;;15.68;37.50
56176;BME280;63065;51.082;17.016;2023-04-29T04:10:39;99837.61;;;15.73;37.44
56176;BME280;63065;51.082;17.016;2023-04-29T04:13:05;99840.79;;;16.02;37.47
56176;BME280;63065;51.082;17.016;2023-04-29T04:15:30;99843.45;;;15.81;37.42
56176;BME280;63065;51.082;17.016;2023-04-29T04:17:56;99844.49;;;15.79;37.65
56176;BME280;63065;51.082;17.016;2023-04-29T04:20:21;99840.97;;;15.81;37.59
56176;BME280;63065;51.082;17.016;2023-04-29T04:22:46;99837.16;;;15.80;37.65
56176;BME280;63065;51.082;17.016;2023-04-29T04:25:12;99834.32;;;15.90;37.86
56176;BME280;63065;51.082;17.016;2023-04-29T04:27:37;99830.19;;;16.06;37.98
56176;BME280;63065;51.082;17.016;2023-04-29T04:30:04;99831.34;;;16.02;37.55
56176;BME280;63065;51.082;17.016;2023-04-29T04:32:29;99831.53;;;16.19;37.30
56176;BME280;63065;51.082;17.016;2023-04-29T04:34:54;99831.31;;;16.30;37.13
56176;BME280;63065;51.082;17.016;2023-04-29T04:37:20;99828.64;;;16.25;37.13
56176;BME280;63065;51.082;17.016;2023-04-29T04:39:45;99825.20;;;16.57;37.23
56176;BME280;63065;51.082;17.016;2023-04-29T04:42:11;99826.53;;;16.33;37.23
56176;BME280;63065;51.082;17.016;2023-04-29T04:44:36;99827.70;;;16.32;37.42
56176;BME280;63065;51.082;17.016;2023-04-29T04:47:01;99822.65;;;16.40;37.27
56176;BME280;63065;51.082;17.016;2023-04-29T04:49:27;99817.00;;;16.78;37.14
56176;BME280;63065;51.082;17.016;2023-04-29T04:51:53;99814.77;;;16.66;36.92
56176;BME280;63065;51.082;17.016;2023-04-29T04:54:18;99816.92;;;16.39;37.12
56176;BME280;63065;51.082;17.016;2023-04-29T04:56:43;99813.16;;;16.85;36.71
56176;BME280;63065;51.082;17.016;2023-04-29T04:59:09;99816.66;;;16.78;36.98
56176;BME280;63065;51.082;17.016;2023-04-29T05:01:34;99815.50;;;16.88;36.75
56176;BME280;63065;51.082;17.016;2023-04-29T05:03:59;99817.04;;;16.86;36.89
56176;BME280;63065;51.082;17.016;2023-04-29T05:06:25;99821.41;;;16.95;36.61
56176;BME280;63065;51.082;17.016;2023-04-29T05:08:51;99825.95;;;16.85;36.89
56176;BME280;63065;51.082;17.016;2023-04-29T05:11:16;99825.94;;;16.95;36.90
56176;BME280;63065;51.082;17.016;2023-04-29T05:13:41;99822.31;;;16.96;36.89
56176;BME280;63065;51.082;17.016;2023-04-29T05:16:06;99824.63;;;17.07;36.92
56176;BME280;63065;51.082;17.016;2023-04-29T05:18:32;99826.28;;;17.06;36.88
56176;BME280;63065;51.082;17.016;2023-04-29T05:20:57;99821.41;;;16.96;36.82
56176;BME280;63065;51.082;17.016;2023-04-29T05:23:23;99825.25;;;17.36;36.69
56176;BME280;63065;51.082;17.016;2023-04-29T05:25:48;99823.25;;;17.42;36.54
56176;BME280;63065;51.082;17.016;2023-04-29T05:28:13;99821.07;;;17.29;36.83
56176;BME280;63065;51.082;17.016;2023-04-29T05:30:39;99822.78;;;17.44;36.41
56176;BME280;63065;51.082;17.016;2023-04-29T05:33:04;99824.32;;;17.07;36.58
56176;BME280;63065;51.082;17.016;2023-04-29T05:35:29;99822.98;;;17.88;36.54
56176;BME280;63065;51.082;17.016;2023-04-29T05:37:55;99828.34;;;18.11;36.25
56176;BME280;63065;51.082;17.016;2023-04-29T05:40:20;99827.09;;;18.28;36.36
56176;BME280;63065;51.082;17.016;2023-04-29T05:42:45;99831.39;;;17.99;36.65
56176;BME280;63065;51.082;17.016;2023-04-29T05:45:10;99834.22;;;17.93;36.93
56176;BME280;63065;51.082;17.016;2023-04-29T05:47:36;99834.81;;;17.83;37.37
56176;BME280;63065;51.082;17.016;2023-04-29T05:50:01;99834.88;;;17.98;37.21
56176;BME280;63065;51.082;17.016;2023-04-29T05:52:26;99835.24;;;18.42;37.28
56176;BME280;63065;51.082;17.016;2023-04-29T05:54:52;99829.74;;;18.61;36.74
56176;BME280;63065;51.082;17.016;2023-04-29T05:57:17;99829.85;;;18.63;36.86
56176;BME280;63065;51.082;17.016;2023-04-29T05:59:43;99834.29;;;18.68;36.64
56176;BME280;63065;51.082;17.016;2023-04-29T06:02:09;99839.70;;;18.66;36.09
56176;BME280;63065;51.082;17.016;2023-04-29T06:04:34;99840.57;;;18.62;36.27
56176;BME280;63065;51.082;17.016;2023-04-29T06:06:59;99838.76;;;18.70;36.44
56176;BME280;63065;51.082;17.016;2023-04-29T06:09:25;99843.27;;;18.72;37.06
56176;BME280;63065;51.082;17.016;2023-04-29T06:11:50;99843.58;;;18.86;36.39
56176;BME280;63065;51.082;17.016;2023-04-29T06:14:15;99846.33;;;18.10;37.30
56176;BME280;63065;51.082;17.016;2023-04-29T06:16:40;99845.61;;;18.26;36.52
56176;BME280;63065;51.082;17.016;2023-04-29T06:19:06;99848.39;;;18.42;36.60
56176;BME280;63065;51.082;17.016;2023-04-29T06:21:31;99849.41;;;18.42;36.45
56176;BME280;63065;51.082;17.016;2023-04-29T06:23:57;99848.58;;;18.39;36.13
56176;BME280;63065;51.082;17.016;2023-04-29T06:26:22;99851.67;;;18.47;36.82
56176;BME280;63065;51.082;17.016;2023-04-29T06:28:47;99854.93;;;18.03;36.68
56176;BME280;63065;51.082;17.016;2023-04-29T06:31:13;99858.40;;;18.32;36.99
56176;BME280;63065;51.082;17.016;2023-04-29T06:33:38;99855.96;;;16.80;39.01
56176;BME280;63065;51.082;17.016;2023-04-29T06:36:04;99859.41;;;17.58;38.05
56176;BME280;63065;51.082;17.016;2023-04-29T06:38:30;99860.03;;;17.81;38.41
56176;BME280;63065;51.082;17.016;2023-04-29T06:40:55;99862.34;;;18.01;37.61
56176;BME280;63065;51.082;17.016;2023-04-29T06:43:21;99861.90;;;18.13;38.14
56176;BME280;63065;51.082;17.016;2023-04-29T06:45:46;99861.36;;;17.95;38.35
56176;BME280;63065;51.082;17.016;2023-04-29T06:48:12;99864.44;;;18.13;38.84
56176;BME280;63065;51.082;17.016;2023-04-29T06:50:37;99863.89;;;17.93;39.20
56176;BME280;63065;51.082;17.016;2023-04-29T06:53:02;99862.05;;;18.23;39.53
56176;BME280;63065;51.082;17.016;2023-04-29T06:55:28;99862.43;;;18.25;38.70
56176;BME280;63065;51.082;17.016;2023-04-29T06:57:54;99861.50;;;17.97;38.49
56176;BME280;63065;51.082;17.016;2023-04-29T07:00:19;99863.28;;;18.19;40.00
56176;BME280;63065;51.082;17.016;2023-04-29T07:02:45;99863.56;;;18.20;39.16
56176;BME280;63065;51.082;17.016;2023-04-29T07:05:10;99863.17;;;18.26;39.85
56176;BME280;63065;51.082;17.016;2023-04-29T07:07:35;99861.95;;;18.31;39.93
56176;BME280;63065;51.082;17.016;2023-04-29T07:10:00;99864.30;;;18.05;41.10
56176;BME280;63065;51.082;17.016;2023-04-29T07:12:25;99863.76;;;17.90;40.92
56176;BME280;63065;51.082;17.016;2023-04-29T07:14:51;99863.89;;;18.17;40.49
56176;BME280;63065;51.082;17.016;2023-04-29T07:17:16;99865.29;;;18.24;40.71
56176;BME280;63065;51.082;17.016;2023-04-29T07:19:42;99864.46;;;18.27;40.46
56176;BME280;63065;51.082;17.016;2023-04-29T07:22:07;99861.33;;;17.78;41.00
56176;BME280;63065;51.082;17.016;2023-04-29T07:24:32;99861.03;;;17.87;41.04
56176;BME280;63065;51.082;17.016;2023-04-29T07:26:58;99859.97;;;17.89;41.33
56176;BME280;63065;51.082;17.016;2023-04-29T07:29:23;99860.12;;;17.67;41.86
56176;BME280;63065;51.082;17.016;2023-04-29T07:31:49;99862.57;;;18.14;41.91
56176;BME280;63065;51.082;17.016;2023-04-29T07:34:15;99862.51;;;18.12;42.02
56176;BME280;63065;51.082;17.016;2023-04-29T07:36:40;99860.70;;;17.86;41.71
56176;BME280;63065;51.082;17.016;2023-04-29T07:39:05;99861.16;;;17.93;42.18
56176;BME280;63065;51.082;17.016;2023-04-29T07:41:31;99859.23;;;18.16;41.57
56176;BME280;63065;51.082;17.016;2023-04-29T07:43:56;99862.80;;;18.00;42.13
56176;BME280;63065;51.082;17.016;2023-04-29T07:46:22;99864.65;;;18.06;41.91
56176;BME280;63065;51.082;17.016;2023-04-29T07:48:48;99868.20;;;17.95;41.95
56176;BME280;63065;51.082;17.016;2023-04-29T07:51:13;99869.38;;;18.37;41.86
56176;BME280;63065;51.082;17.016;2023-04-29T07:53:38;99872.95;;;18.19;41.75
56176;BME280;63065;51.082;17.016;2023-04-29T07:56:05;99872.56;;;18.19;42.17
56176;BME280;63065;51.082;17.016;2023-04-29T07:58:29;99873.55;;;18.53;42.53
56176;BME280;63065;51.082;17.016;2023-04-29T08:00:55;99873.56;;;18.09;42.07
56176;BME280;63065;51.082;17.016;2023-04-29T08:03:21;99874.26;;;18.40;42.42
56176;BME280;63065;51.082;17.016;2023-04-29T08:05:47;99870.46;;;18.26;42.18
56176;BME280;63065;51.082;17.016;2023-04-29T08:08:12;99870.82;;;18.57;42.30
56176;BME280;63065;51.082;17.016;2023-04-29T08:10:37;99874.36;;;18.25;42.08
56176;BME280;63065;51.082;17.016;2023-04-29T08:13:02;99873.85;;;17.82;42.88
56176;BME280;63065;51.082;17.016;2023-04-29T08:15:28;99872.99;;;18.12;43.10
56176;BME280;63065;51.082;17.016;2023-04-29T08:17:53;99875.47;;;18.11;42.35
56176;BME280;63065;51.082;17.016;2023-04-29T08:20:19;99874.55;;;18.41;42.17
56176;BME280;63065;51.082;17.016;2023-04-29T08:22:45;99877.29;;;18.41;41.80
56176;BME280;63065;51.082;17.016;2023-04-29T08:25:10;99876.74;;;18.13;41.75
56176;BME280;63065;51.082;17.016;2023-04-29T08:27:35;99878.68;;;18.24;42.50
56176;BME280;63065;51.082;17.016;2023-04-29T08:30:01;99879.35;;;18.37;42.92
56176;BME280;63065;51.082;17.016;2023-04-29T08:32:26;99885.87;;;18.43;42.36
56176;BME280;63065;51.082;17.016;2023-04-29T08:34:52;99887.81;;;18.45;42.71
56176;BME280;63065;51.082;17.016;2023-04-29T08:37:17;99890.87;;;18.53;42.27
56176;BME280;63065;51.082;17.016;2023-04-29T08:39:43;99891.06;;;18.61;42.37
56176;BME280;63065;51.082;17.016;2023-04-29T08:42:09;99891.31;;;18.50;42.64
56176;BME280;63065;51.082;17.016;2023-04-29T08:44:34;99896.05;;;18.24;42.38
56176;BME280;63065;51.082;17.016;2023-04-29T08:47:01;99897.54;;;18.41;43.07
56176;BME280;63065;51.082;17.016;2023-04-29T08:49:27;99897.48;;;18.06;43.96
56176;BME280;63065;51.082;17.016;2023-04-29T08:51:51;99898.56;;;18.05;43.92
56176;BME280;63065;51.082;17.016;2023-04-29T08:54:16;99901.57;;;18.34;42.91
56176;BME280;63065;51.082;17.016;2023-04-29T08:56:44;99903.08;;;18.23;43.45
56176;BME280;63065;51.082;17.016;2023-04-29T08:59:08;99907.36;;;18.49;43.80
56176;BME280;63065;51.082;17.016;2023-04-29T09:01:35;99908.93;;;18.57;43.05
56176;BME280;63065;51.082;17.016;2023-04-29T09:04:06;99913.17;;;18.58;42.70
56176;BME280;63065;51.082;17.016;2023-04-29T09:06:23;99912.72;;;18.80;43.42
56176;BME280;63065;51.082;17.016;2023-04-29T09:08:49;99913.66;;;18.91;43.02
56176;BME280;63065;51.082;17.016;2023-04-29T09:11:15;99917.67;;;18.97;42.64
56176;BME280;63065;51.082;17.016;2023-04-29T09:13:41;99917.87;;;18.98;41.92
56176;BME280;63065;51.082;17.016;2023-04-29T09:16:10;99920.79;;;19.10;43.08
56176;BME280;63065;51.082;17.016;2023-04-29T09:20:58;99919.56;;;18.02;45.67
56176;BME280;63065;51.082;17.016;2023-04-29T09:25:55;99918.72;;;18.12;45.86
56176;BME280;63065;51.082;17.016;2023-04-29T09:28:15;99923.93;;;19.03;45.15
56176;BME280;63065;51.082;17.016;2023-04-29T09:30:45;99921.39;;;19.56;43.25
56176;BME280;63065;51.082;17.016;2023-04-29T09:33:07;99919.27;;;17.01;47.45
56176;BME280;63065;51.082;17.016;2023-04-29T09:35:30;99921.80;;;17.37;47.34
56176;BME280;63065;51.082;17.016;2023-04-29T09:38:07;99918.42;;;18.36;45.65
56176;BME280;63065;51.082;17.016;2023-04-29T09:40:27;99922.17;;;18.76;44.77
56176;BME280;63065;51.082;17.016;2023-04-29T09:42:46;99920.27;;;19.00;43.91
56176;BME280;63065;51.082;17.016;2023-04-29T09:45:12;99916.02;;;19.39;43.10
56176;BME280;63065;51.082;17.016;2023-04-29T09:47:37;99920.60;;;19.97;42.71
56176;BME280;63065;51.082;17.016;2023-04-29T09:50:10;99915.32;;;20.27;41.61
56176;BME280;63065;51.082;17.016;2023-04-29T09:55:03;99919.01;;;20.01;40.93
56176;BME280;63065;51.082;17.016;2023-04-29T09:57:19;99922.50;;;19.89;40.63
56176;BME280;63065;51.082;17.016;2023-04-29T09:59:44;99925.35;;;19.70;40.74
56176;BME280;63065;51.082;17.016;2023-04-29T10:02:13;99923.48;;;19.75;39.97
56176;BME280;63065;51.082;17.016;2023-04-29T10:04:40;99924.02;;;19.82;39.84
56176;BME280;63065;51.082;17.016;2023-04-29T10:07:01;99925.39;;;20.26;39.77
56176;BME280;63065;51.082;17.016;2023-04-29T10:09:26;99926.28;;;19.30;40.92
56176;BME280;63065;51.082;17.016;2023-04-29T10:11:52;99926.95;;;19.78;41.18
56176;BME280;63065;51.082;17.016;2023-04-29T10:14:17;99926.36;;;19.15;40.74
56176;BME280;63065;51.082;17.016;2023-04-29T10:16:46;99925.61;;;19.59;41.18
56176;BME280;63065;51.082;17.016;2023-04-29T10:19:11;99923.21;;;19.91;40.21
56176;BME280;63065;51.082;17.016;2023-04-29T10:21:33;99922.84;;;20.33;38.49
56176;BME280;63065;51.082;17.016;2023-04-29T10:24:01;99925.66;;;19.97;39.82
56176;BME280;63065;51.082;17.016;2023-04-29T10:26:26;99924.34;;;20.10;40.40
56176;BME280;63065;51.082;17.016;2023-04-29T10:28:50;99917.64;;;20.38;39.43
56176;BME280;63065;51.082;17.016;2023-04-29T10:31:16;99916.41;;;21.33;39.59
56176;BME280;63065;51.082;17.016;2023-04-29T10:33:42;99919.23;;;21.29;38.99
56176;BME280;63065;51.082;17.016;2023-04-29T10:36:07;99919.67;;;19.71;39.76
56176;BME280;63065;51.082;17.016;2023-04-29T10:38:35;99914.48;;;21.24;38.76
56176;BME280;63065;51.082;17.016;2023-04-29T10:41:03;99909.25;;;20.53;38.57
56176;BME280;63065;51.082;17.016;2023-04-29T10:43:25;99909.33;;;20.75;38.02
56176;BME280;63065;51.082;17.016;2023-04-29T10:48:15;99900.58;;;20.59;37.38
56176;BME280;63065;51.082;17.016;2023-04-29T10:53:06;99900.72;;;20.97;37.78
56176;BME280;63065;51.082;17.016;2023-04-29T10:55:35;99897.69;;;20.96;36.30
56176;BME280;63065;51.082;17.016;2023-04-29T10:57:57;99898.50;;;21.27;37.72
56176;BME280;63065;51.082;17.016;2023-04-29T11:00:26;99893.37;;;21.76;35.53
56176;BME280;63065;51.082;17.016;2023-04-29T11:02:48;99896.42;;;20.51;38.02
56176;BME280;63065;51.082;17.016;2023-04-29T11:05:14;99898.21;;;19.32;37.40
56176;BME280;63065;51.082;17.016;2023-04-29T11:07:40;99889.99;;;20.08;38.81
56176;BME280;63065;51.082;17.016;2023-04-29T11:10:06;99891.90;;;20.66;39.02
56176;BME280;63065;51.082;17.016;2023-04-29T11:12:31;99885.31;;;20.96;36.03
56176;BME280;63065;51.082;17.016;2023-04-29T11:14:57;99889.56;;;19.82;40.05
56176;BME280;63065;51.082;17.016;2023-04-29T11:17:23;99888.24;;;20.37;40.92
56176;BME280;63065;51.082;17.016;2023-04-29T11:19:50;99891.13;;;20.86;38.38
56176;BME280;63065;51.082;17.016;2023-04-29T11:24:47;99882.76;;;21.52;35.96
56176;BME280;63065;51.082;17.016;2023-04-29T11:27:09;99883.62;;;21.78;38.65
56176;BME280;63065;51.082;17.016;2023-04-29T11:29:30;99884.05;;;20.53;38.65
56176;BME280;63065;51.082;17.016;2023-04-29T11:31:58;99875.54;;;21.94;36.73
56176;BME280;63065;51.082;17.016;2023-04-29T11:34:24;99879.87;;;21.84;35.75
56176;BME280;63065;51.082;17.016;2023-04-29T11:36:47;99887.29;;;22.14;36.90
56176;BME280;63065;51.082;17.016;2023-04-29T11:39:12;99887.46;;;19.89;35.91
56176;BME280;63065;51.082;17.016;2023-04-29T11:41:38;99893.37;;;21.13;36.13
56176;BME280;63065;51.082;17.016;2023-04-29T11:44:04;99890.54;;;22.23;34.93
56176;BME280;63065;51.082;17.016;2023-04-29T11:46:30;99889.21;;;22.21;34.06
56176;BME280;63065;51.082;17.016;2023-04-29T11:48:57;99896.83;;;20.48;34.64
56176;BME280;63065;51.082;17.016;2023-04-29T11:51:21;99895.54;;;20.79;34.69
56176;BME280;63065;51.082;17.016;2023-04-29T11:53:47;99900.43;;;18.96;36.66
56176;BME280;63065;51.082;17.016;2023-04-29T11:56:12;99896.54;;;19.50;38.13
56176;BME280;63065;51.082;17.016;2023-04-29T11:58:41;99893.55;;;21.05;36.59
56176;BME280;63065;51.082;17.016;2023-04-29T12:01:04;99896.01;;;21.90;34.94
56176;BME280;63065;51.082;17.016;2023-04-29T12:03:31;99896.68;;;22.04;34.18
56176;BME280;63065;51.082;17.016;2023-04-29T12:05:56;99896.22;;;22.43;34.14
56176;BME280;63065;51.082;17.016;2023-04-29T12:08:22;99895.58;;;22.45;33.74
56176;BME280;63065;51.082;17.016;2023-04-29T12:10:47;99894.43;;;22.44;34.74
56176;BME280;63065;51.082;17.016;2023-04-29T12:13:12;99898.08;;;22.52;34.71
56176;BME280;63065;51.082;17.016;2023-04-29T12:15:38;99898.49;;;22.59;35.11
56176;BME280;63065;51.082;17.016;2023-04-29T12:18:03;99900.18;;;20.99;35.56
56176;BME280;63065;51.082;17.016;2023-04-29T12:20:29;99896.56;;;21.48;35.50
56176;BME280;63065;51.082;17.016;2023-04-29T12:22:55;99898.54;;;21.23;36.10
56176;BME280;63065;51.082;17.016;2023-04-29T12:25:25;99893.33;;;21.49;37.15
56176;BME280;63065;51.082;17.016;2023-04-29T12:27:46;99895.67;;;20.98;38.77
56176;BME280;63065;51.082;17.016;2023-04-29T12:30:11;99888.94;;;21.37;39.66
56176;BME280;63065;51.082;17.016;2023-04-29T12:32:37;99892.45;;;21.33;40.43
56176;BME280;63065;51.082;17.016;2023-04-29T12:35:02;99892.04;;;21.93;40.05
56176;BME280;63065;51.082;17.016;2023-04-29T12:37:27;99889.93;;;22.00;39.61
56176;BME280;63065;51.082;17.016;2023-04-29T12:39:54;99887.06;;;22.54;38.80
56176;BME280;63065;51.082;17.016;2023-04-29T12:42:18;99884.90;;;21.88;38.44
56176;BME280;63065;51.082;17.016;2023-04-29T12:44:44;99885.74;;;22.52;37.86
56176;BME280;63065;51.082;17.016;2023-04-29T12:47:10;99885.84;;;21.81;40.63
56176;BME280;63065;51.082;17.016;2023-04-29T12:49:35;99883.04;;;22.43;37.20
56176;BME280;63065;51.082;17.016;2023-04-29T12:52:00;99885.20;;;20.22;41.89
56176;BME280;63065;51.082;17.016;2023-04-29T12:54:26;99882.09;;;21.70;40.36